KDTL/DTL METAR and TAF weather

Enter ICAO airport designator
Station Type Date Time Source
KDTL METAR 2021/09/28 05:15 UTC NOAA

KDTL 280515Z AUTO 15008KT 10SM CLR 16/10 A2985 RMK AO2


Station Type Date Time Source
KDTL Decoded METAR 2021/09/28 05:15 UTC NOAA

Detroit Lakes, Detroit Lakes Airport-Wething Field, MN, United States (KDTL) 46-50N 095-53W
Sep 28, 2021 - 01:15 AM EDT / 2021.09.28 0515 UTC
Wind: from the SSE (150 degrees) at 9 MPH (8 KT):0
Visibility: 10 mile(s):0
Sky conditions: clear
Temperature: 60 F (16 C)
Dew Point: 50 F (10 C)
Relative Humidity: 67%
Pressure (altimeter): 29.85 in. Hg (1010 hPa)
ob: KDTL 280515Z AUTO 15008KT 10SM CLR 16/10 A2985 RMK AO2
cycle: 5

Station Type Date Time Source
KDTL TAF UTC NOAA

Error!

Example: see airport list